Time;durP1;ratioP1;P1;durP2;ratioP2;P2;SDS_P1;SDS_P2;PMS_P1;PMS_P2;Temp;Humidity;BMP_temperature;BMP_pressure;BME280_temperature;BME280_humidity;BME280_pressure;Samples;Min_cycle;Max_cycle;Signal;HPM_P1;HPM_P2
2021/10/10 00:00:12;;;;;;;12.02;9.93;;;12.60;84.90;;;;;;5025562;28;20136;-61
2021/10/10 00:02:38;;;;;;;11.95;9.93;;;12.60;84.90;;;;;;5023043;28;20152;-61
2021/10/10 00:05:04;;;;;;;12.27;9.15;;;12.60;84.90;;;;;;5007003;28;20037;-61
2021/10/10 00:07:30;;;;;;;12.32;10.02;;;12.50;85.00;;;;;;5005804;28;20060;-62
2021/10/10 00:09:55;;;;;;;13.15;9.88;;;12.50;85.10;;;;;;5024279;28;20683;-62
2021/10/10 00:12:21;;;;;;;14.10;10.15;;;12.60;85.20;;;;;;5025492;28;20032;-61
2021/10/10 00:14:46;;;;;;;12.98;10.32;;;12.50;85.20;;;;;;4990709;28;20349;-61
2021/10/10 00:17:12;;;;;;;15.77;8.88;;;12.50;85.20;;;;;;5023686;28;20741;-61
2021/10/10 00:19:37;;;;;;;13.48;9.73;;;12.50;85.20;;;;;;5024636;28;20527;-61
2021/10/10 00:22:03;;;;;;;13.18;9.82;;;12.50;85.20;;;;;;5022577;28;20072;-61
2021/10/10 00:24:28;;;;;;;12.75;10.13;;;12.50;85.20;;;;;;5008247;28;20384;-61
2021/10/10 00:26:54;;;;;;;13.27;9.52;;;12.40;85.20;;;;;;5022633;28;20499;-61
2021/10/10 00:29:19;;;;;;;12.07;9.55;;;12.40;85.20;;;;;;5023399;28;20384;-61
2021/10/10 00:31:45;;;;;;;13.00;9.88;;;12.40;85.30;;;;;;5025057;28;20041;-61
2021/10/10 00:34:11;;;;;;;13.25;9.68;;;12.40;85.40;;;;;;5022133;28;20024;-61
2021/10/10 00:36:36;;;;;;;11.88;9.93;;;12.40;85.50;;;;;;5008265;28;20057;-61
2021/10/10 00:39:02;;;;;;;13.52;9.35;;;12.40;85.60;;;;;;5005993;28;20025;-61
2021/10/10 00:41:28;;;;;;;11.50;9.55;;;12.40;85.50;;;;;;5024807;28;20036;-61
2021/10/10 00:43:53;;;;;;;12.52;9.52;;;12.30;85.60;;;;;;5023692;28;20623;-61
2021/10/10 00:46:19;;;;;;;13.38;10.80;;;12.30;85.60;;;;;;5006238;28;20017;-62
2021/10/10 00:48:45;;;;;;;14.85;10.80;;;12.30;85.70;;;;;;5022220;28;20041;-61
2021/10/10 00:51:11;;;;;;;13.35;10.43;;;12.20;85.80;;;;;;5023783;28;20516;-61
2021/10/10 00:53:37;;;;;;;15.60;11.35;;;12.20;86.40;;;;;;5025369;28;20057;-61
2021/10/10 00:56:03;;;;;;;14.98;11.73;;;12.20;85.70;;;;;;5006830;28;20030;-61
2021/10/10 00:58:28;;;;;;;16.17;11.70;;;12.20;85.70;;;;;;5022174;28;20035;-61
2021/10/10 01:00:55;;;;;;;18.65;11.55;;;12.20;85.70;;;;;;5006597;28;20045;-61
2021/10/10 01:03:21;;;;;;;15.20;11.30;;;12.20;85.70;;;;;;5023008;28;20029;-61
2021/10/10 01:05:46;;;;;;;19.58;12.05;;;12.20;85.80;;;;;;5026360;28;20032;-61
2021/10/10 01:08:13;;;;;;;15.77;11.50;;;12.10;85.80;;;;;;5023104;28;20063;-61
2021/10/10 01:10:39;;;;;;;17.52;11.98;;;12.10;85.90;;;;;;5007183;28;20035;-61
2021/10/10 01:13:04;;;;;;;15.15;10.27;;;12.20;85.90;;;;;;5023026;28;20037;-61
2021/10/10 01:15:30;;;;;;;16.67;11.82;;;12.10;85.90;;;;;;5007297;28;20047;-61
2021/10/10 01:17:56;;;;;;;15.25;11.30;;;12.10;85.90;;;;;;5005713;28;20021;-61
2021/10/10 01:20:21;;;;;;;13.73;10.60;;;12.10;86.00;;;;;;5025347;28;20475;-61
2021/10/10 01:22:47;;;;;;;16.70;11.38;;;12.00;86.70;;;;;;5004995;28;20037;-61
2021/10/10 01:25:12;;;;;;;15.07;10.68;;;12.10;86.20;;;;;;5006259;28;20029;-61
2021/10/10 01:27:38;;;;;;;15.50;11.30;;;12.00;86.20;;;;;;5003845;28;20493;-61
2021/10/10 01:30:04;;;;;;;14.10;11.05;;;12.00;86.20;;;;;;5007113;28;20045;-61
2021/10/10 01:32:29;;;;;;;18.08;10.93;;;12.00;86.20;;;;;;5005686;28;20033;-61
2021/10/10 01:34:55;;;;;;;14.43;11.05;;;12.00;86.10;;;;;;5023271;28;20040;-62
2021/10/10 01:37:21;;;;;;;15.82;10.93;;;12.00;86.10;;;;;;5021408;28;20040;-61
2021/10/10 01:39:46;;;;;;;15.93;11.45;;;12.00;86.30;;;;;;5005708;28;20049;-61
2021/10/10 01:42:12;;;;;;;13.10;11.02;;;11.90;86.30;;;;;;5024080;28;20085;-61
2021/10/10 01:44:38;;;;;;;13.80;10.65;;;11.90;87.00;;;;;;5007626;28;20497;-61
2021/10/10 01:47:04;;;;;;;17.60;11.15;;;11.90;86.40;;;;;;5021756;28;20029;-61
2021/10/10 01:49:30;;;;;;;15.95;11.38;;;11.90;86.40;;;;;;5021986;28;20045;-61
2021/10/10 01:51:55;;;;;;;16.10;10.93;;;11.90;86.50;;;;;;5005694;28;20104;-61
2021/10/10 01:54:21;;;;;;;15.50;11.32;;;11.90;86.50;;;;;;5022103;28;20124;-61
2021/10/10 01:56:46;;;;;;;15.27;10.70;;;11.80;86.40;;;;;;5023057;28;20021;-61
2021/10/10 01:59:12;;;;;;;15.57;10.95;;;11.80;86.40;;;;;;5006308;28;20036;-61
2021/10/10 02:01:37;;;;;;;16.55;11.05;;;11.90;86.60;;;;;;5024208;28;20034;-61
2021/10/10 02:04:03;;;;;;;14.90;11.13;;;11.80;86.40;;;;;;5023555;28;20025;-61
2021/10/10 02:06:29;;;;;;;16.92;10.90;;;11.80;86.50;;;;;;5005973;28;20693;-61
2021/10/10 02:08:54;;;;;;;13.95;11.32;;;11.80;86.60;;;;;;4988522;28;20038;-61
2021/10/10 02:11:20;;;;;;;14.52;10.25;;;11.80;86.60;;;;;;5023582;28;20083;-61
2021/10/10 02:13:45;;;;;;;13.57;9.52;;;11.70;86.60;;;;;;5006516;28;20087;-61
2021/10/10 02:16:11;;;;;;;17.08;10.82;;;11.70;87.30;;;;;;5006817;28;20033;-61
2021/10/10 02:18:36;;;;;;;12.43;10.32;;;11.70;86.60;;;;;;5003511;28;20187;-61
2021/10/10 02:21:02;;;;;;;15.75;10.85;;;11.70;86.70;;;;;;5022227;28;20116;-61
2021/10/10 02:23:28;;;;;;;13.07;10.13;;;11.70;86.70;;;;;;5022283;28;20044;-61
2021/10/10 02:25:53;;;;;;;12.70;9.95;;;11.70;86.70;;;;;;5023193;28;20029;-61
2021/10/10 02:28:19;;;;;;;14.38;10.18;;;11.70;86.70;;;;;;5005634;28;20096;-61
2021/10/10 02:30:44;;;;;;;16.48;11.10;;;11.60;86.80;;;;;;5021843;28;20025;-62
2021/10/10 02:33:10;;;;;;;14.52;10.52;;;11.60;86.90;;;;;;5022678;28;20493;-61
2021/10/10 02:35:35;;;;;;;13.27;10.85;;;11.60;86.80;;;;;;5005905;28;20516;-61
2021/10/10 02:38:01;;;;;;;14.60;9.85;;;11.60;86.90;;;;;;5026254;28;20038;-61
2021/10/10 02:40:26;;;;;;;14.73;11.35;;;11.60;86.90;;;;;;5009970;28;20037;-61
2021/10/10 02:42:52;;;;;;;15.25;10.70;;;11.50;86.90;;;;;;5024987;28;20057;-61
2021/10/10 02:45:17;;;;;;;18.48;10.93;;;11.50;86.90;;;;;;5026764;28;20049;-61
2021/10/10 02:47:43;;;;;;;14.18;10.43;;;11.50;87.00;;;;;;5025515;28;20033;-61
2021/10/10 02:50:08;;;;;;;14.15;11.20;;;11.50;87.10;;;;;;5027134;28;20060;-61
2021/10/10 02:52:34;;;;;;;18.48;11.02;;;11.50;87.10;;;;;;5009325;28;20049;-61
2021/10/10 02:54:59;;;;;;;13.65;10.82;;;11.50;87.10;;;;;;5021297;28;20512;-61
2021/10/10 02:57:25;;;;;;;13.50;10.43;;;11.40;87.20;;;;;;5022521;28;20784;-61
2021/10/10 02:59:50;;;;;;;15.45;11.38;;;11.50;87.20;;;;;;5022037;28;20045;-60
2021/10/10 03:02:16;;;;;;;14.05;11.00;;;11.40;87.20;;;;;;5008506;28;20099;-61
2021/10/10 03:04:41;;;;;;;13.73;11.00;;;11.40;87.30;;;;;;5023610;28;20021;-61
2021/10/10 03:07:07;;;;;;;16.13;10.93;;;11.40;87.20;;;;;;5022996;28;20278;-61
2021/10/10 03:09:32;;;;;;;14.93;10.43;;;11.40;87.20;;;;;;5022999;28;20017;-61
2021/10/10 03:11:58;;;;;;;17.70;11.02;;;11.40;87.20;;;;;;5021538;28;20381;-61
2021/10/10 03:14:23;;;;;;;15.57;11.52;;;11.40;87.20;;;;;;5024310;28;20038;-61
2021/10/10 03:16:49;;;;;;;16.92;11.13;;;11.40;87.30;;;;;;5005822;28;20033;-61
2021/10/10 03:19:14;;;;;;;15.48;10.73;;;11.40;87.30;;;;;;5021876;28;20108;-61
2021/10/10 03:21:40;;;;;;;14.85;11.00;;;11.30;87.40;;;;;;5023260;28;20045;-61
2021/10/10 03:24:06;;;;;;;15.27;10.88;;;11.30;87.40;;;;;;5004980;28;20146;-61
2021/10/10 03:26:31;;;;;;;15.52;10.88;;;11.30;87.50;;;;;;4990612;28;20017;-61
2021/10/10 03:28:57;;;;;;;13.98;10.77;;;11.30;88.20;;;;;;5006964;28;20037;-61
2021/10/10 03:31:22;;;;;;;16.38;10.85;;;11.20;87.60;;;;;;5006104;28;20029;-61
2021/10/10 03:33:48;;;;;;;12.63;10.50;;;11.20;87.70;;;;;;5004555;28;20025;-61
2021/10/10 03:36:13;;;;;;;13.48;10.75;;;11.20;87.70;;;;;;5021842;28;20555;-61
2021/10/10 03:38:39;;;;;;;13.55;10.32;;;11.20;87.80;;;;;;5022243;28;20076;-61
2021/10/10 03:41:05;;;;;;;15.40;10.55;;;11.20;87.80;;;;;;5025596;28;20056;-61
2021/10/10 03:43:30;;;;;;;13.45;10.40;;;11.20;87.80;;;;;;5025618;28;20501;-61
2021/10/10 03:45:56;;;;;;;12.88;10.82;;;11.10;87.70;;;;;;5025634;28;20045;-61
2021/10/10 03:48:23;;;;;;;15.23;9.90;;;11.20;87.80;;;;;;5006801;28;20033;-61
2021/10/10 03:50:49;;;;;;;12.52;10.40;;;11.20;87.70;;;;;;5023042;28;20044;-61
2021/10/10 03:53:14;;;;;;;16.00;10.38;;;11.20;87.70;;;;;;5025030;28;20493;-61
2021/10/10 03:55:40;;;;;;;12.32;10.77;;;11.20;87.70;;;;;;5009767;28;20582;-61
2021/10/10 03:58:06;;;;;;;14.75;10.25;;;11.20;87.80;;;;;;5023246;28;20033;-61
2021/10/10 04:00:32;;;;;;;14.43;10.07;;;11.20;87.80;;;;;;5025221;28;20033;-61
2021/10/10 04:03:00;;;;;;;12.52;10.90;;;11.20;87.90;;;;;;5022709;28;20025;-61
2021/10/10 04:07:57;;;;;;;13.07;10.10;;;11.10;87.90;;;;;;5023784;28;20480;-61
2021/10/10 04:10:22;;;;;;;11.63;9.90;;;11.10;87.90;;;;;;5008811;28;20124;-61
2021/10/10 04:12:48;;;;;;;15.93;10.75;;;11.10;87.90;;;;;;5024230;28;20500;-62
2021/10/10 04:15:13;;;;;;;13.85;9.88;;;11.20;88.00;;;;;;4991339;28;20125;-61
2021/10/10 04:17:40;;;;;;;16.33;10.30;;;11.10;88.00;;;;;;5022672;28;20041;-61
2021/10/10 04:20:06;;;;;;;13.73;9.70;;;11.10;88.00;;;;;;5007337;28;20626;-61
2021/10/10 04:22:31;;;;;;;13.38;9.75;;;11.10;88.00;;;;;;5007441;28;20128;-61
2021/10/10 04:24:57;;;;;;;11.35;9.70;;;11.10;88.10;;;;;;5025627;28;20607;-61
2021/10/10 04:27:22;;;;;;;12.13;9.77;;;11.10;88.30;;;;;;5005214;28;20047;-61
2021/10/10 04:29:48;;;;;;;12.57;10.25;;;11.10;88.30;;;;;;5023468;28;20116;-61
2021/10/10 04:32:13;;;;;;;16.15;9.77;;;11.10;88.30;;;;;;5006155;28;20072;-61
2021/10/10 04:34:39;;;;;;;12.93;9.68;;;11.10;88.50;;;;;;5024692;28;20108;-61
2021/10/10 04:37:06;;;;;;;13.93;9.48;;;11.10;88.40;;;;;;5006833;28;20158;-61
2021/10/10 04:39:31;;;;;;;14.55;9.75;;;11.10;88.50;;;;;;5023658;28;20057;-61
2021/10/10 04:41:57;;;;;;;11.43;10.00;;;11.10;88.50;;;;;;5023915;28;20664;-61
2021/10/10 04:44:22;;;;;;;12.23;9.40;;;11.10;88.50;;;;;;5023654;28;20030;-61
2021/10/10 04:46:48;;;;;;;14.52;10.18;;;11.10;88.40;;;;;;5024275;28;20021;-61
2021/10/10 04:49:13;;;;;;;13.07;10.07;;;11.10;88.70;;;;;;5024154;28;20045;-61
2021/10/10 04:51:39;;;;;;;13.18;9.35;;;11.10;88.80;;;;;;5023170;28;20032;-61
2021/10/10 04:54:04;;;;;;;12.70;9.02;;;11.10;89.50;;;;;;5005255;28;20452;-61
2021/10/10 04:56:30;;;;;;;15.68;9.57;;;11.20;89.10;;;;;;5023232;28;20053;-61
2021/10/10 04:58:55;;;;;;;15.52;10.20;;;11.20;89.20;;;;;;5022028;28;20129;-61
2021/10/10 05:01:21;;;;;;;22.70;10.07;;;11.20;89.20;;;;;;5025790;28;20022;-61
2021/10/10 05:03:46;;;;;;;13.63;9.38;;;11.20;89.10;;;;;;5022977;28;20052;-61
2021/10/10 05:06:12;;;;;;;16.02;10.18;;;11.20;89.10;;;;;;5022756;28;20112;-62
2021/10/10 05:08:38;;;;;;;15.00;9.52;;;11.30;89.00;;;;;;5023259;28;20033;-61
2021/10/10 05:11:04;;;;;;;21.35;10.20;;;11.30;89.00;;;;;;5025573;28;20468;-61
2021/10/10 05:13:29;;;;;;;23.13;9.63;;;11.30;88.90;;;;;;5023346;28;20057;-61
2021/10/10 05:15:55;;;;;;;15.57;9.95;;;11.30;89.10;;;;;;5023767;28;20033;-61
2021/10/10 05:18:21;;;;;;;19.92;11.52;;;11.30;89.10;;;;;;5021689;28;20061;-61
2021/10/10 05:20:46;;;;;;;17.63;10.40;;;11.30;89.10;;;;;;5022350;28;20025;-61
2021/10/10 05:23:15;;;;;;;22.05;10.75;;;11.30;89.40;;;;;;5025071;28;20512;-61
2021/10/10 05:25:41;;;;;;;15.43;10.00;;;11.30;89.40;;;;;;5023047;28;20026;-61
2021/10/10 05:28:06;;;;;;;23.27;10.35;;;11.40;89.50;;;;;;5006483;28;20739;-61
2021/10/10 05:30:32;;;;;;;20.33;10.40;;;11.30;89.60;;;;;;5023206;28;20503;-61
2021/10/10 05:32:57;;;;;;;17.58;10.13;;;11.50;89.60;;;;;;5004174;28;20037;-61
2021/10/10 05:35:23;;;;;;;17.77;9.77;;;11.40;89.50;;;;;;5022247;28;20184;-61
2021/10/10 05:37:48;;;;;;;18.02;10.20;;;11.40;89.50;;;;;;5023539;28;20037;-61
2021/10/10 05:40:14;;;;;;;20.45;10.95;;;11.40;89.50;;;;;;5023985;28;20037;-61
2021/10/10 05:42:39;;;;;;;19.33;10.18;;;11.40;89.60;;;;;;5023754;28;20060;-61
2021/10/10 05:45:05;;;;;;;16.80;10.13;;;11.40;89.50;;;;;;5024484;28;20021;-61
2021/10/10 05:47:31;;;;;;;14.68;10.32;;;11.40;89.50;;;;;;5022736;28;20396;-61
2021/10/10 05:49:57;;;;;;;18.38;10.30;;;11.40;89.60;;;;;;5022476;28;20036;-61
2021/10/10 05:52:24;;;;;;;17.10;9.68;;;11.40;89.60;;;;;;5006897;28;20112;-61
2021/10/10 05:54:50;;;;;;;23.30;11.68;;;11.40;89.70;;;;;;5023507;28;20037;-61
2021/10/10 05:57:18;;;;;;;16.77;10.85;;;11.40;90.00;;;;;;5021451;28;20041;-61
2021/10/10 05:59:46;;;;;;;17.42;10.95;;;11.40;90.30;;;;;;5021204;28;20079;-61
2021/10/10 06:02:11;;;;;;;20.13;11.15;;;11.40;90.30;;;;;;5007067;28;20029;-61
2021/10/10 06:04:38;;;;;;;20.60;10.65;;;11.40;90.30;;;;;;5023790;28;20125;-61
2021/10/10 06:07:04;;;;;;;16.10;10.05;;;11.40;90.30;;;;;;5005464;28;20072;-61
2021/10/10 06:09:29;;;;;;;18.27;10.35;;;11.40;90.20;;;;;;5005036;28;20038;-61
2021/10/10 06:11:55;;;;;;;23.48;11.40;;;11.40;90.20;;;;;;5024326;28;20030;-61
2021/10/10 06:14:20;;;;;;;20.98;11.15;;;11.40;90.20;;;;;;5024284;28;20037;-61
2021/10/10 06:16:46;;;;;;;16.88;10.55;;;11.40;90.20;;;;;;5009549;28;20091;-61
2021/10/10 06:19:11;;;;;;;19.65;11.63;;;11.70;90.30;;;;;;5027198;28;20029;-61
2021/10/10 06:21:37;;;;;;;23.98;11.57;;;11.50;90.30;;;;;;5026035;28;20251;-61
2021/10/10 06:24:02;;;;;;;20.27;11.70;;;11.40;90.30;;;;;;5025706;28;20485;-61
2021/10/10 06:26:28;;;;;;;23.45;11.98;;;11.50;90.30;;;;;;5025915;28;20037;-61
2021/10/10 06:28:54;;;;;;;22.25;12.45;;;11.50;90.30;;;;;;5027729;28;20102;-61
2021/10/10 06:31:19;;;;;;;22.65;12.40;;;11.50;90.30;;;;;;5010154;28;20357;-61
2021/10/10 06:33:45;;;;;;;21.77;11.70;;;11.50;90.50;;;;;;5009474;28;20551;-61
2021/10/10 06:36:10;;;;;;;28.77;13.15;;;11.50;90.50;;;;;;5027409;28;20112;-61
2021/10/10 06:38:36;;;;;;;24.15;13.15;;;11.50;90.60;;;;;;5024393;28;20048;-61
2021/10/10 06:41:01;;;;;;;28.38;12.98;;;11.50;90.70;;;;;;5025509;28;20038;-61
2021/10/10 06:43:27;;;;;;;21.55;12.48;;;11.50;90.70;;;;;;5026820;28;20102;-61
2021/10/10 06:45:52;;;;;;;22.17;12.40;;;11.50;90.60;;;;;;5025971;28;20764;-61
2021/10/10 06:48:18;;;;;;;16.90;12.32;;;11.50;90.50;;;;;;5023071;28;20042;-61
2021/10/10 06:50:43;;;;;;;18.40;12.50;;;11.50;90.50;;;;;;4991494;28;20018;-61
2021/10/10 06:53:09;;;;;;;22.75;12.35;;;11.60;90.60;;;;;;5023435;28;20239;-62
2021/10/10 06:55:34;;;;;;;23.42;12.82;;;11.60;90.60;;;;;;5026893;28;20037;-61
2021/10/10 06:58:00;;;;;;;25.40;12.48;;;11.50;90.60;;;;;;5008534;28;20366;-61
2021/10/10 07:00:25;;;;;;;22.75;13.30;;;11.60;90.60;;;;;;5026779;28;20436;-61
2021/10/10 07:02:51;;;;;;;22.40;13.05;;;11.60;90.60;;;;;;5024944;28;20293;-61
2021/10/10 07:05:18;;;;;;;23.23;13.90;;;11.60;90.60;;;;;;5025580;28;20204;-61
2021/10/10 07:07:44;;;;;;;21.70;14.25;;;11.60;90.70;;;;;;5024626;28;21162;-61
2021/10/10 07:10:10;;;;;;;23.17;13.10;;;11.60;90.80;;;;;;5009274;28;20021;-61
2021/10/10 07:12:35;;;;;;;19.67;13.20;;;11.60;90.80;;;;;;5024989;28;20033;-61
2021/10/10 07:15:01;;;;;;;23.90;15.00;;;11.60;90.80;;;;;;5026198;28;21555;-61
2021/10/10 07:17:28;;;;;;;21.83;13.45;;;11.60;90.80;;;;;;5023185;28;20025;-61
2021/10/10 07:20:20;;;;;;;22.42;14.65;;;11.60;90.90;;;;;;5009703;28;20041;-61
2021/10/10 07:25:05;;;;;;;25.52;14.80;;;11.60;90.80;;;;;;5025629;28;20495;-61
2021/10/10 07:27:35;;;;;;;25.33;15.15;;;11.50;91.10;;;;;;4992895;28;20032;-61
2021/10/10 07:30:03;;;;;;;24.25;14.95;;;11.50;90.90;;;;;;5024606;28;20029;-61
2021/10/10 07:32:28;;;;;;;21.27;15.90;;;11.60;91.00;;;;;;5022237;28;20076;-61
2021/10/10 07:34:54;;;;;;;23.35;14.88;;;11.50;90.90;;;;;;5020044;28;20116;-61
2021/10/10 07:37:19;;;;;;;24.52;15.93;;;11.50;90.90;;;;;;5007906;28;20037;-61
2021/10/10 07:39:45;;;;;;;22.90;15.70;;;11.50;90.90;;;;;;5024823;28;20025;-61
2021/10/10 07:42:13;;;;;;;20.35;15.82;;;11.50;90.90;;;;;;5006706;28;20562;-60
2021/10/10 07:44:41;;;;;;;20.88;16.52;;;11.50;90.90;;;;;;5007379;28;20057;-61
2021/10/10 07:47:15;;;;;;;22.60;15.50;;;11.50;90.90;;;;;;5024022;28;20025;-61
2021/10/10 07:49:41;;;;;;;22.00;15.85;;;11.50;90.80;;;;;;5025696;28;20038;-61
2021/10/10 07:52:06;;;;;;;25.60;15.98;;;11.50;90.80;;;;;;5004708;28;20219;-61
2021/10/10 07:54:32;;;;;;;24.20;17.02;;;11.50;90.80;;;;;;5020602;28;20022;-61
2021/10/10 07:56:57;;;;;;;21.50;16.17;;;11.50;90.80;;;;;;5020938;28;20469;-61
2021/10/10 07:59:23;;;;;;;20.20;15.98;;;11.50;90.80;;;;;;5022038;28;20406;-61
2021/10/10 08:01:48;;;;;;;24.27;16.60;;;11.50;90.80;;;;;;5004980;28;20033;-61
2021/10/10 08:04:14;;;;;;;22.33;16.80;;;11.50;90.70;;;;;;5022676;28;20038;-61
2021/10/10 08:06:39;;;;;;;25.17;16.85;;;11.60;90.70;;;;;;5021718;28;20095;-61
2021/10/10 08:09:05;;;;;;;21.65;16.67;;;11.50;90.70;;;;;;5019480;28;20302;-61
2021/10/10 08:11:30;;;;;;;22.98;15.55;;;11.60;90.70;;;;;;5002586;28;20054;-61
2021/10/10 08:13:56;;;;;;;21.42;15.75;;;11.60;90.60;;;;;;5022989;28;20025;-61
2021/10/10 08:16:21;;;;;;;25.08;16.38;;;11.60;90.60;;;;;;5024788;28;20102;-61
2021/10/10 08:18:47;;;;;;;28.25;15.15;;;11.60;90.60;;;;;;5020141;28;20105;-61
2021/10/10 08:21:12;;;;;;;19.88;15.30;;;11.60;90.60;;;;;;5019926;28;20025;-61
2021/10/10 08:23:38;;;;;;;22.35;15.15;;;11.60;90.60;;;;;;5022116;28;20466;-61
2021/10/10 08:26:03;;;;;;;19.42;14.73;;;11.60;90.50;;;;;;5006273;28;20110;-61
2021/10/10 08:28:29;;;;;;;23.05;15.50;;;11.60;90.50;;;;;;5023783;28;20382;-61
2021/10/10 08:30:55;;;;;;;42.90;16.58;;;11.70;90.50;;;;;;5021521;28;20408;-62
2021/10/10 08:33:22;;;;;;;19.70;13.82;;;11.70;90.50;;;;;;5023816;28;20030;-61
2021/10/10 08:35:48;;;;;;;47.15;16.30;;;11.70;90.40;;;;;;5019016;28;20112;-61
2021/10/10 08:38:14;;;;;;;39.45;17.52;;;11.70;90.50;;;;;;5020379;28;20048;-62
2021/10/10 08:40:39;;;;;;;31.90;15.98;;;11.80;90.60;;;;;;5007399;28;20026;-61
2021/10/10 08:43:06;;;;;;;38.13;16.13;;;11.80;90.50;;;;;;5001963;28;20132;-61
2021/10/10 08:45:31;;;;;;;33.83;15.40;;;11.80;90.50;;;;;;5003639;28;20045;-61
2021/10/10 08:47:57;;;;;;;39.03;15.30;;;11.80;90.60;;;;;;5020115;28;20365;-61
2021/10/10 08:50:24;;;;;;;54.33;17.10;;;11.80;90.40;;;;;;5020993;28;20064;-61
2021/10/10 08:52:52;;;;;;;30.92;15.70;;;11.90;90.30;;;;;;4984662;28;20616;-61
2021/10/10 08:55:18;;;;;;;47.55;15.77;;;11.80;90.20;;;;;;5018804;28;20397;-61
2021/10/10 08:57:43;;;;;;;58.10;16.30;;;11.90;90.30;;;;;;5006637;28;20058;-61
2021/10/10 09:00:18;;;;;;;44.60;16.30;;;12.00;90.30;;;;;;5021645;28;20025;-61
2021/10/10 09:02:47;;;;;;;34.35;15.68;;;12.00;90.20;;;;;;5023004;28;20034;-61
2021/10/10 09:05:13;;;;;;;36.22;15.20;;;12.00;90.20;;;;;;5021808;28;20390;-62
2021/10/10 09:07:39;;;;;;;54.03;16.17;;;12.00;90.10;;;;;;5022265;28;20193;-61
2021/10/10 09:10:25;;;;;;;54.15;15.77;;;12.00;90.10;;;;;;5022312;28;20037;-62
2021/10/10 09:12:50;;;;;;;;;;;12.00;90.10;;;;;;5019920;28;20029;-61
2021/10/10 09:15:18;;;;;;;99.15;19.25;;;12.10;90.20;;;;;;5024923;28;19920;-62
2021/10/10 09:17:57;;;;;;;66.05;18.80;;;12.10;90.20;;;;;;5023858;28;20070;-61
2021/10/10 09:20:33;;;;;;;100.30;21.00;;;12.20;90.40;;;;;;5006143;28;20040;-61
2021/10/10 09:23:00;;;;;;;73.07;19.67;;;12.20;90.40;;;;;;5008320;28;20075;-62
2021/10/10 09:25:25;;;;;;;93.93;20.48;;;12.20;90.30;;;;;;5020715;28;20595;-61
2021/10/10 09:27:51;;;;;;;82.13;20.33;;;12.30;90.30;;;;;;4999639;28;20122;-62
2021/10/10 09:30:20;;;;;;;78.43;18.90;;;12.30;90.30;;;;;;5019969;28;20045;-60
2021/10/10 09:32:46;;;;;;;101.90;19.85;;;12.40;90.30;;;;;;5006877;28;20501;-62
2021/10/10 09:35:42;;;;;;;96.13;20.45;;;12.40;90.20;;;;;;5021989;28;20091;-61
2021/10/10 09:38:12;;;;;;;84.38;19.13;;;12.40;90.30;;;;;;5006565;28;20148;-62
2021/10/10 09:40:47;;;;;;;111.40;22.33;;;12.50;90.40;;;;;;5019173;28;20025;-61
2021/10/10 09:43:13;;;;;;;136.55;23.30;;;12.50;90.40;;;;;;5017640;28;20048;-62
2021/10/10 09:45:53;;;;;;;96.05;19.95;;;12.50;90.30;;;;;;5020509;28;21427;-61
2021/10/10 09:48:30;;;;;;;78.53;19.27;;;12.60;90.30;;;;;;5008619;28;20053;-62
2021/10/10 09:50:55;;;;;;;83.80;19.90;;;12.60;90.00;;;;;;5026323;28;20026;-62
2021/10/10 09:53:31;;;;;;;101.53;21.42;;;12.60;89.90;;;;;;5019790;28;20033;-61
2021/10/10 09:56:05;;;;;;;113.57;22.80;;;12.70;90.00;;;;;;5020746;28;20056;-62
2021/10/10 09:58:37;;;;;;;109.70;20.35;;;12.70;90.00;;;;;;5024149;28;20038;-60
2021/10/10 10:01:23;;;;;;;90.43;20.17;;;12.70;90.00;;;;;;5016769;28;20060;-61
2021/10/10 10:03:59;;;;;;;87.70;20.88;;;12.80;90.10;;;;;;5014121;28;20104;-61
2021/10/10 10:06:24;;;;;;;;;;;12.80;89.90;;;;;;5021798;28;20136;-61
2021/10/10 10:08:50;;;;;;;118.80;23.00;;;12.80;90.20;;;;;;5022163;28;19920;-61
2021/10/10 10:11:19;;;;;;;112.38;20.80;;;12.80;90.00;;;;;;5020712;28;20469;-61
2021/10/10 10:13:44;;;;;;;109.55;20.73;;;12.90;90.10;;;;;;5005249;28;20057;-62
2021/10/10 10:16:12;;;;;;;125.60;22.15;;;13.00;89.80;;;;;;5025120;28;20677;-62
2021/10/10 10:18:37;;;;;;;105.10;20.10;;;13.00;89.70;;;;;;5023414;28;20033;-61
2021/10/10 10:21:03;;;;;;;109.80;21.63;;;13.00;89.60;;;;;;5017195;28;21300;-61
2021/10/10 10:23:31;;;;;;;98.10;21.70;;;13.00;89.80;;;;;;4988479;28;20069;-61
2021/10/10 10:25:56;;;;;;;113.90;21.90;;;13.00;89.60;;;;;;5016522;28;20018;-61
2021/10/10 10:28:22;;;;;;;121.35;21.48;;;13.10;89.30;;;;;;4987083;28;20037;-61
2021/10/10 10:30:47;;;;;;;115.00;22.25;;;13.10;88.90;;;;;;5004475;28;20032;-61
2021/10/10 10:33:13;;;;;;;103.03;21.15;;;13.20;89.00;;;;;;5024722;28;20037;-61
2021/10/10 10:35:46;;;;;;;113.97;20.60;;;13.20;89.00;;;;;;5025433;28;20045;-61
2021/10/10 10:38:12;;;;;;;138.05;22.20;;;13.20;88.90;;;;;;5024879;28;20082;-61
2021/10/10 10:40:39;;;;;;;125.50;21.02;;;13.20;88.60;;;;;;5027495;28;20033;-61
2021/10/10 10:43:06;;;;;;;135.95;22.25;;;13.20;88.60;;;;;;5003959;28;20429;-62
2021/10/10 10:45:45;;;;;;;145.95;23.50;;;13.30;88.50;;;;;;5004565;28;20485;-61
2021/10/10 10:48:35;;;;;;;131.80;22.67;;;13.30;88.20;;;;;;5021739;28;20061;-61
2021/10/10 10:51:14;;;;;;;155.82;23.58;;;13.40;88.10;;;;;;4994620;28;20042;-61
2021/10/10 10:53:39;;;;;;;105.15;20.17;;;13.40;88.10;;;;;;5020462;28;20029;-62
2021/10/10 10:56:05;;;;;;;131.75;21.55;;;13.40;88.00;;;;;;5022731;28;20048;-60
2021/10/10 10:58:44;;;;;;;144.23;23.48;;;13.40;87.90;;;;;;5022944;28;20428;-61
2021/10/10 11:01:10;;;;;;;146.55;23.17;;;13.50;87.90;;;;;;5006937;28;20037;-61
2021/10/10 11:03:35;;;;;;;139.38;21.67;;;13.50;87.70;;;;;;5021820;28;20037;-61
2021/10/10 11:06:07;;;;;;;125.93;22.67;;;13.50;87.60;;;;;;5023055;28;20096;-61
2021/10/10 11:08:38;;;;;;;112.50;21.67;;;13.60;87.50;;;;;;5023334;28;20025;-61
2021/10/10 11:11:04;;;;;;;140.68;22.48;;;13.60;87.40;;;;;;5003472;28;20029;-61
2021/10/10 11:13:36;;;;;;;120.78;20.02;;;13.60;86.80;;;;;;5023376;28;20037;-61
2021/10/10 11:16:05;;;;;;;102.82;19.48;;;13.60;86.30;;;;;;5020478;28;20087;-61
2021/10/10 11:18:31;;;;;;;114.35;20.65;;;13.70;85.90;;;;;;5023755;28;20037;-61
2021/10/10 11:21:01;;;;;;;105.00;19.58;;;13.70;85.80;;;;;;5024762;28;20091;-62
2021/10/10 11:23:27;;;;;;;153.48;23.80;;;13.70;85.30;;;;;;5025381;28;20081;-61
2021/10/10 11:25:55;;;;;;;124.20;22.35;;;13.70;85.00;;;;;;4992738;28;20029;-61
2021/10/10 11:28:36;;;;;;;134.10;22.48;;;13.70;85.00;;;;;;5007652;28;20057;-60
2021/10/10 11:31:12;;;;;;;122.45;21.30;;;13.80;84.70;;;;;;5007118;28;20111;-61
2021/10/10 11:33:39;;;;;;;115.85;20.27;;;13.80;84.50;;;;;;5027414;28;20025;-61
2021/10/10 11:36:05;;;;;;;102.47;17.77;;;13.80;84.00;;;;;;5024683;28;20037;-61
2021/10/10 11:38:49;;;;;;;124.25;20.83;;;13.90;83.90;;;;;;5023512;28;20098;-61
2021/10/10 11:41:14;;;;;;;122.40;21.48;;;13.90;83.50;;;;;;5007826;28;20037;-62
2021/10/10 11:43:40;;;;;;;160.90;20.55;;;13.90;83.20;;;;;;5024108;28;20092;-61
2021/10/10 11:46:05;;;;;;;110.93;20.20;;;13.90;83.30;;;;;;5036165;28;20033;-61
2021/10/10 11:48:37;;;;;;;108.05;19.48;;;13.90;83.30;;;;;;5025915;28;20029;-61
2021/10/10 11:51:03;;;;;;;129.38;22.23;;;13.90;83.20;;;;;;5008292;28;20167;-62
2021/10/10 11:53:44;;;;;;;133.40;20.83;;;14.00;82.90;;;;;;5023247;28;20049;-60
2021/10/10 11:56:10;;;;;;;112.90;21.85;;;14.00;82.90;;;;;;4991863;28;20448;-61
2021/10/10 11:58:35;;;;;;;92.72;19.40;;;14.00;82.70;;;;;;5023591;28;20064;-62
2021/10/10 12:01:09;;;;;;;118.78;21.52;;;13.80;82.60;;;;;;5025726;28;20017;-61
2021/10/10 12:03:34;;;;;;;85.88;17.48;;;14.00;82.60;;;;;;5022186;28;20467;-61
2021/10/10 12:06:00;;;;;;;98.03;18.88;;;14.10;82.40;;;;;;5019544;28;20033;-61
2021/10/10 12:08:25;;;;;;;117.28;18.75;;;14.10;82.20;;;;;;5020946;28;20033;-61
2021/10/10 12:10:51;;;;;;;140.75;20.40;;;13.90;82.00;;;;;;5023877;28;20075;-61
2021/10/10 12:13:21;;;;;;;135.65;21.52;;;14.00;82.00;;;;;;5008009;28;20397;-61
2021/10/10 12:15:59;;;;;;;121.25;22.42;;;14.20;82.00;;;;;;4990626;28;20036;-61
2021/10/10 12:18:30;;;;;;;112.20;20.20;;;14.20;81.90;;;;;;5025209;28;20033;-61
2021/10/10 12:21:24;;;;;;;121.30;19.08;;;14.20;81.80;;;;;;5024357;28;20034;-61
2021/10/10 12:24:03;;;;;;;108.57;18.10;;;14.30;81.70;;;;;;5025922;28;20503;-60
2021/10/10 12:26:29;;;;;;;85.47;16.35;;;14.30;81.70;;;;;;4992141;28;20088;-61
2021/10/10 12:28:55;;;;;;;94.82;18.77;;;14.40;81.50;;;;;;5023864;28;20056;-61
2021/10/10 12:31:23;;;;;;;87.07;17.10;;;14.40;81.40;;;;;;5023757;28;20182;-62